Time;durP1;ratioP1;P1;durP2;ratioP2;P2;SDS_P1;SDS_P2;PMS_P1;PMS_P2;Temp;Humidity;BMP_temperature;BMP_pressure;BME280_temperature;BME280_humidity;BME280_pressure;Samples;Min_cycle;Max_cycle;Signal;HPM_P1;HPM_P2
2023/12/24 00:00:55;;;;;;;1.10;0.70;;;;;;;2.09;100.00;99754.13;4974782;28;20191;-67
2023/12/24 00:03:24;;;;;;;1.50;0.90;;;;;;;2.10;100.00;99747.78;4973278;28;20194;-67
2023/12/24 00:05:53;;;;;;;0.80;0.50;;;;;;;2.04;100.00;99753.81;4974292;28;20218;-66
2023/12/24 00:08:28;;;;;;;0.80;0.50;;;;;;;1.95;100.00;99741.53;4965602;28;20227;-66
2023/12/24 00:10:57;;;;;;;3.75;1.13;;;;;;;2.06;100.00;99749.16;4959148;28;20194;-67
2023/12/24 00:13:27;;;;;;;1.27;0.73;;;;;;;2.12;100.00;99753.81;4963805;28;20199;-67
2023/12/24 00:15:57;;;;;;;1.10;1.00;;;;;;;1.87;100.00;99757.59;4972528;28;20216;-67
2023/12/24 00:18:26;;;;;;;0.80;0.50;;;;;;;1.92;100.00;99752.56;4974861;28;20203;-68
2023/12/24 00:20:55;;;;;;;1.05;0.95;;;;;;;1.99;100.00;99748.19;4962381;28;20196;-67
2023/12/24 00:23:24;;;;;;;1.48;0.68;;;;;;;1.97;100.00;99755.56;4972110;28;20691;-67
2023/12/24 00:25:52;;;;;;;2.13;1.15;;;;;;;1.96;100.00;99737.88;4973238;28;20592;-67
2023/12/24 00:28:21;;;;;;;0.98;0.88;;;;;;;2.00;100.00;99739.19;4965213;28;20207;-67
2023/12/24 00:30:50;;;;;;;1.38;0.60;;;;;;;2.01;100.00;99746.19;4967988;28;20226;-67
2023/12/24 00:33:20;;;;;;;1.98;1.17;;;;;;;1.83;100.00;99742.94;4974521;28;20203;-66
2023/12/24 00:35:49;;;;;;;2.55;0.93;;;;;;;1.92;100.00;99747.25;4971841;28;20253;-64
2023/12/24 00:38:17;;;;;;;2.08;1.02;;;;;;;1.83;100.00;99753.63;4974089;28;20294;-66
2023/12/24 00:40:46;;;;;;;1.90;0.70;;;;;;;1.76;100.00;99744.63;4964803;28;20196;-67
2023/12/24 00:43:15;;;;;;;1.38;0.90;;;;;;;1.91;100.00;99740.22;4974142;28;20199;-68
2023/12/24 00:45:44;;;;;;;1.70;0.93;;;;;;;1.89;100.00;99747.56;4974030;28;20219;-66
2023/12/24 00:48:13;;;;;;;1.55;0.85;;;;;;;1.96;100.00;99735.22;4962820;28;20238;-67
2023/12/24 00:50:43;;;;;;;1.40;0.98;;;;;;;2.03;100.00;99730.00;4980311;28;20200;-66
2023/12/24 00:53:12;;;;;;;2.03;1.42;;;;;;;2.05;100.00;99736.81;4975496;28;20214;-67
2023/12/24 00:55:44;;;;;;;1.80;1.10;;;;;;;2.03;100.00;99722.81;4967593;28;20777;-65
2023/12/24 00:58:14;;;;;;;1.17;0.80;;;;;;;1.99;100.00;99734.84;4966530;28;20203;-68
2023/12/24 01:00:46;;;;;;;1.52;1.02;;;;;;;1.81;100.00;99742.28;4962366;28;20736;-67
2023/12/24 01:03:15;;;;;;;1.00;0.90;;;;;;;1.99;100.00;99734.84;4973222;28;20191;-68
2023/12/24 01:05:45;;;;;;;1.10;1.00;;;;;;;1.78;100.00;99729.31;4968894;28;20738;-66
2023/12/24 01:08:14;;;;;;;1.73;1.60;;;;;;;1.66;100.00;99730.69;4960986;28;20204;-67
2023/12/24 01:10:43;;;;;;;1.70;1.17;;;;;;;1.76;100.00;99728.63;4963225;28;20191;-67
2023/12/24 01:13:12;;;;;;;1.83;1.25;;;;;;;1.79;100.00;99728.31;4966150;28;20243;-68
2023/12/24 01:15:43;;;;;;;2.67;1.35;;;;;;;1.82;100.00;99724.44;4968146;28;20242;-66
2023/12/24 01:18:12;;;;;;;2.08;1.30;;;;;;;1.67;100.00;99713.69;4969198;28;20204;-67
2023/12/24 01:20:41;;;;;;;1.73;1.48;;;;;;;1.66;100.00;99720.00;4961413;28;20206;-66
2023/12/24 01:23:12;;;;;;;2.92;1.52;;;;;;;1.72;100.00;99730.00;4972808;28;20210;-66
2023/12/24 01:25:40;;;;;;;1.50;1.00;;;;;;;1.81;100.00;99733.44;4972905;28;20222;-65
2023/12/24 01:28:09;;;;;;;2.45;1.35;;;;;;;1.81;100.00;99728.09;4967273;28;20195;-67
2023/12/24 01:30:38;;;;;;;2.25;1.00;;;;;;;1.78;100.00;99718.63;4973609;28;20191;-67
2023/12/24 01:33:07;;;;;;;1.65;1.55;;;;;;;1.74;100.00;99722.66;4963058;28;20211;-67
2023/12/24 01:35:37;;;;;;;1.70;0.98;;;;;;;1.83;100.00;99710.09;4963062;28;20606;-67
2023/12/24 01:38:06;;;;;;;3.15;1.30;;;;;;;1.85;100.00;99714.25;4978356;28;20187;-66
2023/12/24 01:40:36;;;;;;;1.98;1.20;;;;;;;1.88;100.00;99721.09;4976311;28;20754;-67
2023/12/24 01:43:05;;;;;;;2.47;1.45;;;;;;;1.73;100.00;99716.50;4973961;28;20238;-67
2023/12/24 01:45:35;;;;;;;2.95;2.22;;;;;;;1.65;100.00;99705.00;4968530;28;20230;-67
2023/12/24 01:48:04;;;;;;;2.58;1.67;;;;;;;1.74;100.00;99707.47;4975982;28;20274;-65
2023/12/24 01:50:33;;;;;;;3.45;2.15;;;;;;;1.73;100.00;99697.00;4973374;28;20631;-66
2023/12/24 01:53:02;;;;;;;8.18;1.85;;;;;;;1.77;100.00;99695.63;4966599;28;20294;-67
2023/12/24 01:55:31;;;;;;;2.05;1.45;;;;;;;1.85;100.00;99698.25;4958463;29;20216;-67
2023/12/24 01:58:03;;;;;;;3.03;2.83;;;;;;;1.92;100.00;99693.88;4965919;28;20575;-67
2023/12/24 02:00:32;;;;;;;1.52;1.20;;;;;;;1.80;100.00;99692.59;4969063;28;20207;-65
2023/12/24 02:03:03;;;;;;;2.35;1.35;;;;;;;1.84;100.00;99688.56;4963144;28;20192;-67
2023/12/24 02:05:32;;;;;;;4.40;2.40;;;;;;;1.79;100.00;99679.47;4962810;28;20310;-65
2023/12/24 02:08:02;;;;;;;3.50;2.30;;;;;;;1.67;100.00;99679.00;4974678;28;20196;-67
2023/12/24 02:10:31;;;;;;;2.20;1.60;;;;;;;1.88;100.00;99676.56;4969700;28;20581;-65
2023/12/24 02:13:02;;;;;;;2.22;1.10;;;;;;;1.86;100.00;99673.22;4972901;28;20199;-66
2023/12/24 02:15:30;;;;;;;2.60;1.98;;;;;;;1.84;100.00;99675.22;4977287;28;20219;-67
2023/12/24 02:18:00;;;;;;;2.55;1.70;;;;;;;1.78;100.00;99667.97;4975045;28;20238;-67
2023/12/24 02:20:31;;;;;;;2.95;1.48;;;;;;;1.80;100.00;99663.25;4972764;28;20259;-68
2023/12/24 02:23:01;;;;;;;6.25;2.13;;;;;;;1.80;100.00;99668.59;4972111;28;20199;-66
2023/12/24 02:25:31;;;;;;;3.13;1.90;;;;;;;1.79;100.00;99666.97;4970705;28;20242;-67
2023/12/24 02:28:07;;;;;;;1.98;1.73;;;;;;;2.00;100.00;99668.97;4974970;28;20206;-68
2023/12/24 02:30:41;;;;;;;2.30;1.60;;;;;;;1.82;100.00;99665.75;4960828;28;20196;-66
2023/12/24 02:33:12;;;;;;;2.03;1.55;;;;;;;1.92;100.00;99664.53;4963968;28;20194;-67
2023/12/24 02:35:42;;;;;;;5.10;1.50;;;;;;;1.89;100.00;99667.53;4972394;28;20703;-67
2023/12/24 02:38:13;;;;;;;3.40;3.10;;;;;;;1.97;100.00;99654.16;4964810;28;20189;-66
2023/12/24 02:40:41;;;;;;;2.33;1.23;;;;;;;1.89;100.00;99648.88;4964108;28;20211;-63
2023/12/24 02:43:10;;;;;;;2.28;1.63;;;;;;;1.82;100.00;99658.59;4962966;28;20285;-67
2023/12/24 02:45:39;;;;;;;1.83;1.63;;;;;;;1.89;100.00;99648.88;4973103;28;20227;-67
2023/12/24 02:48:08;;;;;;;3.95;2.80;;;;;;;1.90;100.00;99650.53;4962992;28;20332;-66
2023/12/24 02:50:37;;;;;;;4.25;1.17;;;;;;;2.00;100.00;99648.47;4963209;28;20576;-67
2023/12/24 02:53:05;;;;;;;1.70;1.55;;;;;;;2.18;100.00;99651.66;4964117;28;20250;-67
2023/12/24 02:55:35;;;;;;;2.83;2.55;;;;;;;2.13;100.00;99646.03;4969776;28;20224;-66
2023/12/24 02:58:05;;;;;;;2.10;1.55;;;;;;;1.98;100.00;99629.16;4963826;28;20200;-68
2023/12/24 03:00:34;;;;;;;2.58;1.33;;;;;;;1.89;100.00;99618.72;4968583;28;20266;-67
2023/12/24 03:03:04;;;;;;;2.75;1.35;;;;;;;1.93;100.00;99626.19;4966709;28;20204;-68
2023/12/24 03:05:34;;;;;;;1.92;1.38;;;;;;;2.21;100.00;99645.16;4971891;28;20255;-66
2023/12/24 03:08:03;;;;;;;1.45;1.05;;;;;;;2.27;100.00;99643.59;4978278;28;20192;-66
2023/12/24 03:10:32;;;;;;;1.50;1.20;;;;;;;1.94;100.00;99633.16;4961441;28;20195;-67
2023/12/24 03:13:02;;;;;;;2.03;1.55;;;;;;;2.06;100.00;99614.91;4963375;28;20564;-67
2023/12/24 03:15:32;;;;;;;2.58;1.60;;;;;;;2.13;100.00;99606.00;4968491;28;20291;-67
2023/12/24 03:18:00;;;;;;;2.17;1.98;;;;;;;2.25;100.00;99618.94;4961822;28;20538;-66
2023/12/24 03:20:29;;;;;;;2.58;1.25;;;;;;;2.25;100.00;99616.25;4973062;28;20211;-67
2023/12/24 03:22:58;;;;;;;1.70;1.13;;;;;;;2.21;100.00;99610.44;4966350;28;20196;-67
2023/12/24 03:25:27;;;;;;;2.10;1.17;;;;;;;2.13;100.00;99606.00;4967695;28;20297;-67
2023/12/24 03:27:55;;;;;;;2.00;1.25;;;;;;;2.19;100.00;99599.94;4966974;28;20220;-68
2023/12/24 03:30:26;;;;;;;3.70;0.90;;;;;;;2.13;100.00;99598.00;4963451;28;20180;-67
2023/12/24 03:32:54;;;;;;;1.70;1.10;;;;;;;2.17;100.00;99593.97;4973910;28;20203;-66
2023/12/24 03:35:24;;;;;;;1.77;0.73;;;;;;;2.01;100.00;99591.44;4970934;28;20247;-67
2023/12/24 03:37:53;;;;;;;0.90;0.60;;;;;;;1.91;100.00;99582.00;4968769;28;20564;-65
2023/12/24 03:40:21;;;;;;;1.42;0.80;;;;;;;1.93;100.00;99570.16;4960007;28;20231;-67
2023/12/24 03:42:50;;;;;;;1.33;1.00;;;;;;;2.02;100.00;99571.75;4973902;28;20294;-66
2023/12/24 03:45:19;;;;;;;1.42;0.93;;;;;;;1.97;100.00;99568.78;4956638;28;20223;-67
2023/12/24 03:47:50;;;;;;;1.50;0.80;;;;;;;2.00;100.00;99571.09;4959149;28;20275;-66
2023/12/24 03:50:20;;;;;;;1.30;0.77;;;;;;;2.12;100.00;99569.66;4967833;28;20199;-65
2023/12/24 03:52:48;;;;;;;1.30;0.90;;;;;;;2.04;100.00;99566.22;4967508;28;20204;-65
2023/12/24 03:55:18;;;;;;;1.67;1.52;;;;;;;2.04;100.00;99559.03;4968907;28;20220;-67
2023/12/24 03:57:47;;;;;;;1.20;0.75;;;;;;;2.12;100.00;99560.84;4955497;28;20708;-66
2023/12/24 04:00:17;;;;;;;5.40;1.40;;;;;;;2.23;100.00;99556.91;4964537;28;20229;-67
2023/12/24 04:02:45;;;;;;;1.10;1.00;;;;;;;2.12;100.00;99561.66;4973382;28;20191;-66
2023/12/24 04:05:16;;;;;;;0.90;0.60;;;;;;;2.13;100.00;99554.50;4963331;28;20227;-67
2023/12/24 04:07:45;;;;;;;1.42;1.33;;;;;;;2.26;100.00;99559.19;4975008;28;20250;-65
2023/12/24 04:10:14;;;;;;;1.30;0.57;;;;;;;2.27;100.00;99555.53;4972762;28;20191;-66
2023/12/24 04:12:43;;;;;;;2.47;1.17;;;;;;;2.16;100.00;99559.47;4973147;28;20210;-65
2023/12/24 04:15:12;;;;;;;3.17;0.73;;;;;;;2.25;100.00;99553.03;4959439;28;20247;-65
2023/12/24 04:17:41;;;;;;;1.55;0.95;;;;;;;2.19;100.00;99545.75;4960972;28;20199;-66
2023/12/24 04:20:10;;;;;;;1.35;0.90;;;;;;;2.08;100.00;99548.88;4974207;28;20298;-66
2023/12/24 04:22:41;;;;;;;1.20;0.80;;;;;;;2.14;100.00;99548.13;4959331;28;20200;-66
2023/12/24 04:25:10;;;;;;;1.00;0.73;;;;;;;2.20;100.00;99539.41;4965101;28;20226;-65
2023/12/24 04:27:38;;;;;;;1.00;0.80;;;;;;;2.11;100.00;99538.66;4961901;28;20204;-66
2023/12/24 04:30:10;;;;;;;1.10;0.60;;;;;;;2.14;100.00;99542.78;4966374;28;20736;-67
2023/12/24 04:32:39;;;;;;;1.10;0.60;;;;;;;2.17;100.00;99537.94;4974941;28;20203;-64
2023/12/24 04:35:09;;;;;;;0.90;0.60;;;;;;;2.25;100.00;99537.00;4971919;28;20314;-66
2023/12/24 04:37:39;;;;;;;1.73;0.90;;;;;;;2.20;100.00;99536.72;4971902;28;20218;-66
2023/12/24 04:40:09;;;;;;;1.38;0.82;;;;;;;2.32;100.00;99524.63;4971831;28;20219;-66
2023/12/24 04:42:38;;;;;;;0.98;0.60;;;;;;;2.25;100.00;99523.66;4961793;28;20671;-65
2023/12/24 04:45:08;;;;;;;1.60;0.75;;;;;;;2.26;100.00;99513.81;4962422;28;20215;-65
2023/12/24 04:47:37;;;;;;;0.90;0.70;;;;;;;2.10;100.00;99510.31;4974416;28;20195;-67
2023/12/24 04:50:08;;;;;;;1.20;0.80;;;;;;;2.17;100.00;99505.91;4971425;28;20699;-67
2023/12/24 04:52:37;;;;;;;1.77;0.90;;;;;;;2.12;100.00;99502.13;4972157;28;20203;-67
2023/12/24 04:55:09;;;;;;;1.58;1.00;;;;;;;2.17;100.00;99505.91;4970726;28;20215;-67
2023/12/24 04:57:38;;;;;;;1.33;0.93;;;;;;;2.46;100.00;99509.63;4965793;28;20215;-67
2023/12/24 05:00:08;;;;;;;1.00;0.80;;;;;;;2.25;100.00;99506.81;4971554;28;20294;-66
2023/12/24 05:02:37;;;;;;;2.38;0.88;;;;;;;2.38;100.00;99505.16;4965786;28;20557;-67
2023/12/24 05:05:08;;;;;;;1.73;1.17;;;;;;;2.33;100.00;99496.88;4970380;28;20226;-67
2023/12/24 05:07:37;;;;;;;5.18;1.05;;;;;;;2.33;100.00;99488.88;4963300;28;20250;-68
2023/12/24 05:10:08;;;;;;;1.98;0.95;;;;;;;2.33;100.00;99483.53;4964259;28;20189;-66
2023/12/24 05:12:37;;;;;;;1.40;0.70;;;;;;;2.39;100.00;99484.66;4955485;28;20196;-68
2023/12/24 05:15:06;;;;;;;1.73;1.00;;;;;;;2.52;100.00;99482.16;4971634;28;20222;-66
2023/12/24 05:17:35;;;;;;;1.85;0.90;;;;;;;2.50;100.00;99484.19;4960994;28;20204;-66
2023/12/24 05:20:05;;;;;;;1.88;0.80;;;;;;;2.40;100.00;99483.66;4961612;28;20196;-65
2023/12/24 05:22:34;;;;;;;0.88;0.60;;;;;;;2.42;100.00;99484.31;4967608;28;20254;-66
2023/12/24 05:25:03;;;;;;;1.15;0.80;;;;;;;2.48;100.00;99486.22;4966674;28;20251;-65
2023/12/24 05:27:34;;;;;;;1.33;0.93;;;;;;;2.51;100.00;99481.34;4973889;28;20191;-66
2023/12/24 05:30:03;;;;;;;2.08;0.80;;;;;;;2.55;100.00;99471.13;4967733;28;20560;-64
2023/12/24 05:32:31;;;;;;;1.58;1.08;;;;;;;2.62;100.00;99472.84;4967779;28;20196;-66
2023/12/24 05:35:00;;;;;;;1.35;0.80;;;;;;;2.56;100.00;99470.13;4968053;28;20242;-65
2023/12/24 05:37:29;;;;;;;1.02;0.93;;;;;;;2.76;100.00;99467.69;4957765;28;20191;-65
2023/12/24 05:39:58;;;;;;;0.90;0.70;;;;;;;2.85;100.00;99467.41;4965602;28;20282;-67
2023/12/24 05:42:26;;;;;;;1.50;0.90;;;;;;;2.82;100.00;99462.41;4968499;28;20236;-67
2023/12/24 05:44:57;;;;;;;1.50;1.40;;;;;;;2.96;100.00;99452.72;4967941;28;20219;-66
2023/12/24 05:47:25;;;;;;;1.55;1.17;;;;;;;2.92;100.00;99446.94;4968993;28;20242;-66
2023/12/24 05:49:54;;;;;;;1.00;0.70;;;;;;;2.97;100.00;99451.69;4963458;28;20685;-66
2023/12/24 05:52:23;;;;;;;1.00;0.77;;;;;;;2.91;100.00;99445.25;4958962;28;20228;-67
2023/12/24 05:54:54;;;;;;;1.17;0.80;;;;;;;3.20;100.00;99447.03;4962751;28;20223;-65
2023/12/24 05:57:23;;;;;;;0.90;0.65;;;;;;;3.27;100.00;99439.06;4971561;28;20195;-66
2023/12/24 05:59:51;;;;;;;0.90;0.63;;;;;;;3.49;100.00;99444.22;4968019;28;20242;-66
2023/12/24 06:02:22;;;;;;;1.23;1.13;;;;;;;3.51;100.00;99446.72;4973865;28;20211;-67
2023/12/24 06:04:51;;;;;;;1.02;0.70;;;;;;;3.53;100.00;99446.53;4970446;28;20310;-66
2023/12/24 06:07:19;;;;;;;1.15;0.80;;;;;;;3.72;100.00;99454.72;4971416;28;20563;-68
2023/12/24 06:09:48;;;;;;;1.10;0.70;;;;;;;3.70;100.00;99443.38;4973374;28;20613;-65
2023/12/24 06:12:17;;;;;;;2.80;1.10;;;;;;;3.82;100.00;99441.84;4956261;28;20220;-65
2023/12/24 06:14:45;;;;;;;3.75;1.55;;;;;;;3.79;100.00;99439.53;4973318;28;20587;-67
2023/12/24 06:17:14;;;;;;;1.30;1.00;;;;;;;3.86;100.00;99435.09;4967626;28;20199;-67
2023/12/24 06:19:45;;;;;;;1.10;0.73;;;;;;;3.88;100.00;99433.03;4967897;28;20665;-65
2023/12/24 06:22:14;;;;;;;2.10;0.90;;;;;;;3.94;100.00;99434.09;4964691;28;20207;-67
2023/12/24 06:24:43;;;;;;;2.45;1.15;;;;;;;4.02;100.00;99433.13;4977026;28;20298;-66
2023/12/24 06:27:12;;;;;;;1.63;1.20;;;;;;;4.08;100.00;99427.81;4976176;28;20191;-66
2023/12/24 06:29:41;;;;;;;1.10;1.00;;;;;;;4.08;100.00;99438.53;4967143;28;20206;-68
2023/12/24 06:32:10;;;;;;;1.52;0.70;;;;;;;4.13;100.00;99432.56;4976023;28;20686;-65
2023/12/24 06:34:38;;;;;;;1.33;1.02;;;;;;;4.40;100.00;99430.91;4962132;28;20275;-66
2023/12/24 06:37:09;;;;;;;1.80;0.90;;;;;;;4.37;100.00;99434.78;4972591;28;20203;-67
2023/12/24 06:39:37;;;;;;;1.00;0.70;;;;;;;4.45;100.00;99426.59;4967815;28;20191;-67
2023/12/24 06:42:06;;;;;;;1.48;0.82;;;;;;;4.52;100.00;99424.78;4965452;28;20211;-67
2023/12/24 06:44:36;;;;;;;1.85;1.27;;;;;;;4.71;100.00;99418.69;4970613;28;20220;-66
2023/12/24 06:47:05;;;;;;;2.47;1.98;;;;;;;4.67;100.00;99422.78;4975081;28;20196;-68
2023/12/24 06:49:33;;;;;;;2.10;0.95;;;;;;;4.87;100.00;99428.22;4976239;28;20203;-68
2023/12/24 06:52:02;;;;;;;1.85;0.80;;;;;;;4.80;100.00;99428.19;4969498;28;20591;-67
2023/12/24 06:54:32;;;;;;;2.83;1.02;;;;;;;4.94;100.00;99420.22;4973308;28;20210;-67
2023/12/24 06:57:01;;;;;;;1.52;1.15;;;;;;;5.08;100.00;99421.91;4971411;28;20568;-67
2023/12/24 06:59:29;;;;;;;2.28;0.57;;;;;;;5.50;100.00;99421.56;4965099;28;20291;-67
2023/12/24 07:01:58;;;;;;;1.10;0.90;;;;;;;5.80;100.00;99423.84;4967270;28;20696;-67
2023/12/24 07:04:27;;;;;;;1.08;0.70;;;;;;;5.97;100.00;99408.97;4975076;28;20195;-67
2023/12/24 07:06:55;;;;;;;1.42;1.25;;;;;;;6.34;100.00;99404.78;4964785;28;20200;-67
2023/12/24 07:09:24;;;;;;;1.10;0.60;;;;;;;6.54;100.00;99406.34;4975582;28;20200;-67
2023/12/24 07:11:54;;;;;;;1.00;0.60;;;;;;;6.77;100.00;99407.75;4964849;28;20700;-68
2023/12/24 07:14:23;;;;;;;1.08;0.70;;;;;;;7.05;100.00;99408.22;4961466;28;20673;-68
2023/12/24 07:16:52;;;;;;;1.33;1.17;;;;;;;7.22;100.00;99398.56;4961294;28;20191;-67
2023/12/24 07:19:21;;;;;;;2.10;1.15;;;;;;;7.26;100.00;99402.47;4972377;28;20714;-66
2023/12/24 07:21:49;;;;;;;1.05;0.55;;;;;;;7.41;100.00;99397.63;4973356;28;20214;-65
2023/12/24 07:24:18;;;;;;;2.03;1.00;;;;;;;7.43;100.00;99405.50;4963933;28;20200;-67
2023/12/24 07:26:47;;;;;;;1.45;0.70;;;;;;;7.50;100.00;99397.38;4966403;28;20210;-66
2023/12/24 07:29:17;;;;;;;1.25;0.73;;;;;;;7.56;100.00;99389.22;4970703;28;20242;-68
2023/12/24 07:31:48;;;;;;;1.00;0.73;;;;;;;7.65;100.00;99392.50;4967435;28;20192;-67
2023/12/24 07:34:16;;;;;;;1.10;0.77;;;;;;;7.68;100.00;99395.56;4966278;28;20661;-66
2023/12/24 07:36:45;;;;;;;1.10;1.00;;;;;;;7.73;100.00;99401.13;4967603;28;20195;-68
2023/12/24 07:39:14;;;;;;;2.15;1.40;;;;;;;7.85;100.00;99393.13;4970072;28;20234;-66
2023/12/24 07:41:43;;;;;;;1.40;0.82;;;;;;;7.90;100.00;99384.38;4977913;28;20211;-67
2023/12/24 07:44:13;;;;;;;1.10;0.70;;;;;;;7.88;100.00;99395.41;4965695;28;20234;-67
2023/12/24 07:46:45;;;;;;;1.75;1.00;;;;;;;7.90;100.00;99395.16;4960815;28;20226;-67
2023/12/24 07:49:13;;;;;;;1.42;0.95;;;;;;;7.93;100.00;99400.94;4967641;28;20191;-67
2023/12/24 07:51:42;;;;;;;1.73;1.10;;;;;;;7.93;100.00;99397.44;4960812;28;20203;-67
2023/12/24 07:54:11;;;;;;;1.10;0.70;;;;;;;7.98;100.00;99402.97;4971615;28;20203;-67
2023/12/24 07:56:39;;;;;;;2.50;0.90;;;;;;;8.02;100.00;99407.69;4968366;28;20270;-68
2023/12/24 07:59:08;;;;;;;2.03;0.98;;;;;;;8.08;100.00;99397.91;4957792;28;20188;-68
2023/12/24 08:01:37;;;;;;;3.22;1.65;;;;;;;8.09;100.00;99403.06;4969756;28;20254;-69
2023/12/24 08:04:07;;;;;;;1.30;0.80;;;;;;;8.11;100.00;99402.84;4967473;28;20188;-67
2023/12/24 08:06:36;;;;;;;1.20;0.70;;;;;;;8.06;100.00;99395.44;4964827;28;20216;-65
2023/12/24 08:09:06;;;;;;;1.00;0.80;;;;;;;8.15;100.00;99404.03;4973041;28;20191;-67
2023/12/24 08:11:36;;;;;;;6.10;1.00;;;;;;;8.12;100.00;99399.94;4974148;28;20192;-67
2023/12/24 08:14:05;;;;;;;1.85;1.30;;;;;;;8.15;100.00;99410.25;4968859;28;20274;-67
2023/12/24 08:16:35;;;;;;;2.08;1.38;;;;;;;8.16;100.00;99405.69;4960809;28;20307;-67
2023/12/24 08:19:03;;;;;;;1.55;1.10;;;;;;;8.24;100.00;99397.31;4964064;28;20228;-68
2023/12/24 08:21:33;;;;;;;1.67;1.10;;;;;;;8.31;100.00;99405.38;4970465;28;20198;-69
2023/12/24 08:24:02;;;;;;;2.85;1.05;;;;;;;8.22;100.00;99394.88;4964857;28;20616;-64
2023/12/24 08:26:31;;;;;;;2.00;1.30;;;;;;;8.27;100.00;99386.94;4962019;28;20226;-68
2023/12/24 08:29:00;;;;;;;2.70;1.13;;;;;;;8.24;100.00;99384.66;4968880;28;20682;-67
2023/12/24 08:31:28;;;;;;;2.10;1.52;;;;;;;8.32;100.00;99389.00;4970332;28;20188;-66
2023/12/24 08:33:57;;;;;;;2.03;1.35;;;;;;;8.35;100.00;99399.31;4973087;28;20246;-68
2023/12/24 08:36:26;;;;;;;3.17;1.38;;;;;;;8.41;100.00;99403.00;4960313;28;20324;-68
2023/12/24 08:38:56;;;;;;;1.35;1.00;;;;;;;8.48;100.00;99392.94;4966795;28;20200;-67
2023/12/24 08:41:25;;;;;;;4.30;1.35;;;;;;;8.49;100.00;99399.97;4970120;28;20571;-67
2023/12/24 08:43:54;;;;;;;1.50;1.10;;;;;;;8.42;100.00;99391.16;4968872;28;20208;-68
2023/12/24 08:46:22;;;;;;;2.38;1.10;;;;;;;8.50;100.00;99388.16;4965493;28;20216;-65
2023/12/24 08:48:51;;;;;;;2.67;1.80;;;;;;;8.55;100.00;99389.13;4968322;28;20267;-68
2023/12/24 08:51:20;;;;;;;4.20;1.20;;;;;;;8.52;100.00;99386.88;4961620;28;20265;-68
2023/12/24 08:53:49;;;;;;;2.75;1.35;;;;;;;8.60;100.00;99394.66;4965253;28;20206;-66
2023/12/24 08:56:19;;;;;;;1.90;1.45;;;;;;;8.52;100.00;99394.16;4975005;28;20211;-65
2023/12/24 08:58:49;;;;;;;2.42;1.10;;;;;;;8.49;100.00;99392.72;4965462;28;20287;-68
2023/12/24 09:01:18;;;;;;;2.22;1.60;;;;;;;8.53;100.00;99401.19;4963143;28;20219;-67
2023/12/24 09:03:46;;;;;;;3.45;1.40;;;;;;;8.62;100.00;99395.25;4963289;28;20715;-68
2023/12/24 09:06:15;;;;;;;1.25;1.15;;;;;;;8.62;100.00;99389.03;4966943;28;20212;-67
2023/12/24 09:08:45;;;;;;;5.32;2.03;;;;;;;8.68;100.00;99391.66;4970949;28;20198;-67
2023/12/24 09:11:13;;;;;;;3.13;1.42;;;;;;;8.65;100.00;99394.00;4967349;28;20271;-66
2023/12/24 09:13:43;;;;;;;1.77;1.17;;;;;;;8.64;100.00;99392.34;4966943;28;20227;-68
2023/12/24 09:16:13;;;;;;;2.13;1.48;;;;;;;8.77;100.00;99389.47;4968430;28;20215;-68
2023/12/24 09:18:41;;;;;;;2.30;1.08;;;;;;;8.87;100.00;99387.06;4970465;28;20208;-68
2023/12/24 09:21:11;;;;;;;4.05;1.70;;;;;;;9.11;100.00;99386.09;4965656;28;20191;-67
2023/12/24 09:23:39;;;;;;;3.85;1.65;;;;;;;9.16;100.00;99380.84;4964493;28;20211;-67
2023/12/24 09:26:08;;;;;;;2.47;2.08;;;;;;;9.04;100.00;99384.56;4967603;28;20216;-66
2023/12/24 09:28:36;;;;;;;2.67;1.45;;;;;;;9.05;100.00;99381.63;4970849;28;20191;-67
2023/12/24 09:31:07;;;;;;;3.05;1.35;;;;;;;8.90;100.00;99389.31;4974194;28;20195;-68
2023/12/24 09:33:36;;;;;;;1.73;1.10;;;;;;;8.83;100.00;99383.19;4970640;28;20238;-67
2023/12/24 09:36:07;;;;;;;2.67;1.50;;;;;;;8.90;100.00;99383.09;4970414;28;20263;-68
2023/12/24 09:38:36;;;;;;;1.75;1.33;;;;;;;8.82;100.00;99378.81;4957609;28;20191;-67
2023/12/24 09:41:05;;;;;;;3.03;1.60;;;;;;;8.93;100.00;99379.94;4973761;28;20195;-67
2023/12/24 09:43:39;;;;;;;1.70;1.05;;;;;;;8.96;100.00;99383.00;4963857;28;20208;-67
2023/12/24 09:46:09;;;;;;;1.90;1.00;;;;;;;9.00;100.00;99376.13;4959287;28;20215;-67
2023/12/24 09:48:38;;;;;;;1.83;1.00;;;;;;;8.97;100.00;99378.44;4966999;28;20231;-66
2023/12/24 09:51:08;;;;;;;1.15;0.70;;;;;;;8.93;100.00;99366.44;4962596;28;20203;-68
2023/12/24 09:53:37;;;;;;;1.53;1.13;;;;;;;8.99;100.00;99363.66;4963938;28;20617;-67
2023/12/24 09:56:06;;;;;;;1.10;0.77;;;;;;;9.05;100.00;99368.13;4972678;28;20970;-66
2023/12/24 09:58:35;;;;;;;6.43;4.25;;;;;;;9.08;100.00;99373.09;4968041;28;20577;-67
2023/12/24 10:01:04;;;;;;;1.25;0.80;;;;;;;9.09;100.00;99369.34;4968043;28;20192;-68
2023/12/24 10:03:34;;;;;;;0.90;0.55;;;;;;;9.01;100.00;99377.75;4968900;28;20212;-67
2023/12/24 10:06:05;;;;;;;2.10;1.25;;;;;;;9.08;100.00;99369.56;4970291;28;20587;-67
2023/12/24 10:08:35;;;;;;;1.80;0.90;;;;;;;9.12;100.00;99362.66;4970723;28;20202;-67
2023/12/24 10:11:20;;;;;;;2.67;0.90;;;;;;;9.17;100.00;99365.47;4965624;28;20228;-67
2023/12/24 10:13:59;;;;;;;0.90;0.60;;;;;;;9.16;100.00;99343.06;4967645;28;20199;-66
2023/12/24 10:16:29;;;;;;;1.67;0.60;;;;;;;9.30;100.00;99345.56;4971594;28;20429;-68
2023/12/24 10:18:59;;;;;;;1.38;1.00;;;;;;;9.30;100.00;99350.97;4969430;28;20192;-67
2023/12/24 10:21:29;;;;;;;4.40;0.73;;;;;;;9.27;100.00;99346.03;4961776;28;20200;-68
2023/12/24 10:24:04;;;;;;;0.90;0.68;;;;;;;9.31;100.00;99344.50;4965663;28;20212;-69
2023/12/24 10:26:32;;;;;;;1.20;0.73;;;;;;;9.37;100.00;99349.00;4967801;28;20692;-66
2023/12/24 10:29:01;;;;;;;0.90;0.60;;;;;;;9.39;100.00;99341.50;4977254;28;20195;-66
2023/12/24 10:31:51;;;;;;;2.27;0.70;;;;;;;9.44;100.00;99342.41;4970075;28;20469;-67
2023/12/24 10:34:21;;;;;;;1.65;0.90;;;;;;;9.39;100.00;99336.09;4972128;28;20485;-68
2023/12/24 10:36:50;;;;;;;0.90;0.70;;;;;;;9.41;100.00;99344.78;4960890;28;20219;-65
2023/12/24 10:39:24;;;;;;;0.93;0.60;;;;;;;9.43;100.00;99342.66;4966020;28;20192;-69
2023/12/24 10:41:56;;;;;;;1.30;0.70;;;;;;;9.48;100.00;99340.09;4972989;28;20742;-67
2023/12/24 10:44:24;;;;;;;1.00;0.60;;;;;;;9.52;100.00;99346.69;4967865;28;20635;-68
2023/12/24 10:46:53;;;;;;;1.57;0.70;;;;;;;9.49;100.00;99337.16;4968440;28;20413;-68
2023/12/24 10:49:23;;;;;;;0.80;0.60;;;;;;;9.49;100.00;99339.03;4968235;28;20414;-70
2023/12/24 10:51:52;;;;;;;1.47;0.93;;;;;;;9.56;100.00;99320.84;4974040;28;20225;-68
2023/12/24 10:54:21;;;;;;;1.13;0.82;;;;;;;9.51;100.00;99331.53;4969722;28;20603;-67
2023/12/24 10:57:01;;;;;;;0.80;0.50;;;;;;;9.58;100.00;99324.16;4971360;28;20273;-66
2023/12/24 11:00:04;;;;;;;2.60;1.00;;;;;;;9.68;100.00;99313.59;4976777;28;20397;-66
2023/12/24 11:02:33;;;;;;;1.00;0.83;;;;;;;9.65;100.00;99314.03;4975562;28;20477;-68
2023/12/24 11:05:05;;;;;;;1.80;0.83;;;;;;;9.66;100.00;99309.47;4972575;28;20544;-66
2023/12/24 11:07:48;;;;;;;0.90;0.60;;;;;;;9.74;100.00;99306.41;4969200;28;20410;-66
2023/12/24 11:10:43;;;;;;;1.17;0.60;;;;;;;9.71;100.00;99307.72;4967639;28;20202;-68
2023/12/24 11:13:32;;;;;;;0.90;0.67;;;;;;;9.81;100.00;99312.53;4969042;28;20433;-68
2023/12/24 11:16:02;;;;;;;0.90;0.60;;;;;;;9.82;100.00;99308.75;4963281;28;20906;-66
2023/12/24 11:18:46;;;;;;;0.90;0.60;;;;;;;9.88;100.00;99314.03;4961265;28;20254;-67
2023/12/24 11:21:19;;;;;;;1.00;0.53;;;;;;;9.73;100.00;99302.88;4963749;28;20486;-67
2023/12/24 11:24:21;;;;;;;0.80;0.60;;;;;;;9.70;100.00;99306.06;4967774;28;20433;-67
2023/12/24 11:26:53;;;;;;;0.90;0.73;;;;;;;9.68;100.00;99302.78;4971194;28;20463;-66
2023/12/24 11:29:48;;;;;;;1.20;0.90;;;;;;;9.75;100.00;99305.34;4968275;28;20219;-67
2023/12/24 11:32:37;;;;;;;0.87;0.63;;;;;;;9.69;100.00;99301.69;4960344;28;20207;-66
2023/12/24 11:35:10;;;;;;;1.60;0.87;;;;;;;9.78;100.00;99289.47;4962212;28;20958;-67
2023/12/24 11:37:40;;;;;;;0.90;0.67;;;;;;;9.81;100.00;99291.72;4965755;28;20431;-65
2023/12/24 11:40:12;;;;;;;0.90;0.57;;;;;;;9.82;100.00;99292.56;4974319;28;20410;-65
2023/12/24 11:42:46;;;;;;;1.27;0.60;;;;;;;9.75;100.00;99281.88;4963746;28;20414;-68
2023/12/24 11:45:23;;;;;;;0.90;0.60;;;;;;;9.74;100.00;99280.22;4966276;28;20454;-68
2023/12/24 11:47:53;;;;;;;1.23;0.60;;;;;;;9.81;100.00;99274.69;4973712;28;20492;-68